Nearby METAR Reports

 

KPRB - Paso Robles, California, USA
Distance from station: SW 1mi, 1km
Updated: 07/23/2014 4:53pm
Clear
Clear
 Wind from calm
Wind: Calm
Temperature: 95°F , 35°C
Dew Point: 48°F , 9°C
Humidity: 20%
Barometer: 29.97 inHg , 1014.9 hPa
Clouds: Clear
Visibility: 10 miles , 16 km
2014/07/23 23:53 KPRB 232353Z AUTO 00000KT 10SM CLR 35/09 A2997 RMK AO2 SLP139 6//// T03500089 10356 20244 56027 $
KSBP - San Luis Obispo, California, USA
Distance from station: S 30mi, 49km
Updated: 07/23/2014 4:56pm
Clear
Clear
 Wind from NW
Wind: NW 25 mph , 41 km/h, Gust: 32 mph , 52 km/h
Temperature: 73°F , 23°C
Dew Point: 59°F , 15°C
Humidity: 61%
Barometer: 29.98 inHg , 1015.2 hPa
Clouds: Clear
Visibility: 10 miles , 16 km
2014/07/23 23:56 KSBP 232356Z 31022G28KT 10SM CLR 23/15 A2998 RMK AO2 PK WND 32029/2303 SLP151 T02330150 10278 20233 58015
 
KSMX - Santa Maria, California, USA
Distance from station: S 54mi, 87km
Updated: 07/23/2014 4:51pm
Clear
Clear
 Wind from WNW
Wind: WNW 24 mph , 39 km/h
Temperature: 79°F , 26°C
Dew Point: 59°F , 15°C
Humidity: 51%
Barometer: 29.99 inHg , 1015.6 hPa
Clouds: Clear
Visibility: 9 miles , 14 km
2014/07/23 23:51 KSMX 232351Z 30021KT 9SM CLR 26/15 A2999 RMK AO2 PK WND 29029/2337 SLP154 T02560150 10278 20250 58016 $
KNLC - Lemoore Nas/Reev, California, USA
Distance from station: NE 58mi, 94km
Updated: 07/23/2014 4:56pm
Clear
Clear
 Wind from N
Wind: N 14 mph , 22 km/h
Temperature: 88°F , 31°C
Dew Point: 57°F , 14°C
Humidity: 35%
Barometer: 29.98 inHg , 1015.2 hPa
Clouds: Clear
Visibility: 10 miles , 16 km
2014/07/23 23:56 KNLC 232356Z 36012KT 10SM CLR 31/14 A2998 RMK AO2 SLP150 RH/34 T03110144 10317 20244 56027
 
KVBG - Vandenberg Afb, California, USA
Distance from station: S 65mi, 105km
Updated: 07/23/2014 4:55pm
Few Clouds
Few Clouds
 Wind from NW
Wind: NW 22 mph , 35 km/h, Gust: 32 mph , 52 km/h
Temperature: 72°F , 22°C
Dew Point: 61°F , 16°C
Humidity: 69%
Barometer: 30.02 inHg , 1016.6 hPa
Clouds: Few Clouds
Visibility: 10 miles , 16 km
Cloud details: Few Clouds 1500 ft
Few Clouds 25000 ft
2014/07/23 23:55 KVBG 232355Z 31019G28KT 10SM FEW015 FEW250 22/16 A3002 RMK AO2A PK WND 32030/2343 SLP155 T02220156 10239 20217 56019 LAST
KLPC - Lompoc, California, USA
Distance from station: S 70mi, 113km
Updated: 07/23/2014 4:55pm

 Wind from WNW
Wind: WNW 21 mph , 33 km/h
Temperature: 75°F , 24°C
Dew Point: 57°F , 14°C
Humidity: 54%
Barometer: 30.02 inHg , 1016.6 hPa
Visibility: 10 miles , 16 km
2014/07/23 23:55 KLPC 232355Z AUTO 30018KT 250V020 10SM 24/14 A3002 RMK AO1 10270 20240 402700110 57014
 
KHJO - Hanford, California, USA
Distance from station: NE 72mi, 116km
Updated: 07/23/2014 4:53pm
Partly cloudy
Partly cloudy
 Wind from NW
Wind: NW 9 mph , 15 km/h
Temperature: 90°F , 32°C
Dew Point: 54°F , 12°C
Humidity: 29%
Barometer: 29.98 inHg , 1015.2 hPa
Clouds: Partly cloudy
Visibility: 10 miles , 16 km
Cloud details: Partly cloudy 11000 ft
2014/07/23 23:53 KHJO 232353Z AUTO 32008KT 10SM SCT110 32/12 A2998 RMK AO2 SLP151 T03170122 10317 20244 56027